Nowshera Weather



Nowshera's Current Weather

Temprature 25.38o clear sky

clear sky

Rain: 0 %

Min Temprature25.38o
Max Temprature25.38o
Humidity77
Wind Speed1.42 m/h
Sun Rise06:02:32
Sun Set18:04:23
Current Time: 26-Sep-2022 07:56:55
Lat/Lon: 34.0058, 71.9977




Nowshera's Geo Location



Nowshera's Weather Forecast

Time Overall Temp Min Temp Max Temp Humidity Wind Speed Rain
26-Sep-2022 (Mon)
08:00:00 light rain 25.380 24.770 25.380 77 1.42 m/h 19 %
11:00:00 light rain 26.430 26.430 28.520 71 0.79 m/h 85 %
14:00:00 clear sky 29.450 29.450 31.480 55 1.52 m/h 0 %
17:00:00 clear sky 31.340 31.340 31.340 47 2.47 m/h 0 %
20:00:00 clear sky 28.110 28.110 28.110 59 2.27 m/h 0 %
23:00:00 clear sky 27.220 27.220 27.220 62 1.28 m/h 0 %
27-Sep-2022 (Tue)
02:00:00 clear sky 25.810 25.810 25.810 66 1.46 m/h 0 %
05:00:00 clear sky 24.950 24.950 24.950 68 1.34 m/h 0 %
08:00:00 clear sky 26.430 26.430 26.430 62 1.18 m/h 0 %
11:00:00 clear sky 30.120 30.120 30.120 50 1.19 m/h 0 %
14:00:00 clear sky 33.040 33.040 33.040 35 1.65 m/h 0 %
17:00:00 clear sky 32.420 32.420 32.420 39 3.24 m/h 0 %
20:00:00 clear sky 28.810 28.810 28.810 54 3.21 m/h 0 %
23:00:00 clear sky 27.800 27.800 27.800 58 1.04 m/h 0 %
28-Sep-2022 (Wed)
02:00:00 clear sky 26.710 26.710 26.710 62 1.2 m/h 0 %
05:00:00 clear sky 25.380 25.380 25.380 66 1.49 m/h 0 %
08:00:00 clear sky 27.150 27.150 27.150 59 1.34 m/h 0 %
11:00:00 clear sky 30.860 30.860 30.860 47 1.98 m/h 0 %
14:00:00 clear sky 33.150 33.150 33.150 40 1.78 m/h 0 %
17:00:00 clear sky 32.640 32.640 32.640 43 2.78 m/h 0 %
20:00:00 light rain 28.720 28.720 28.720 56 0.71 m/h 31 %
23:00:00 light rain 26.820 26.820 26.820 63 1.69 m/h 57 %
29-Sep-2022 (Thu)
02:00:00 light rain 24.860 24.860 24.860 71 1.89 m/h 140 %
05:00:00 light rain 23.390 23.390 23.390 74 1.88 m/h 161 %
08:00:00 light rain 25.200 25.200 25.200 65 1.18 m/h 86 %
11:00:00 clear sky 29.080 29.080 29.080 50 1.53 m/h 0 %
14:00:00 clear sky 32.270 32.270 32.270 41 0.98 m/h 0 %
17:00:00 clear sky 32.300 32.300 32.300 44 2.89 m/h 0 %
20:00:00 light rain 28.710 28.710 28.710 56 2.61 m/h 43 %
23:00:00 light rain 26.860 26.860 26.860 63 1.24 m/h 26 %
30-Sep-2022 (Fri)
02:00:00 light rain 25.730 25.730 25.730 67 1.34 m/h 37 %
05:00:00 clear sky 25.010 25.010 25.010 69 0.78 m/h 0 %
08:00:00 clear sky 26.630 26.630 26.630 59 1.48 m/h 0 %
11:00:00 clear sky 30.450 30.450 30.450 46 1.5 m/h 0 %
14:00:00 clear sky 33.160 33.160 33.160 38 1.38 m/h 0 %
17:00:00 clear sky 32.810 32.810 32.810 41 3.38 m/h 0 %
20:00:00 clear sky 29.560 29.560 29.560 49 3.24 m/h 0 %
23:00:00 few clouds 28.720 28.720 28.720 53 0.39 m/h 0 %
01-Oct-2022 (Sat)
02:00:00 clear sky 27.300 27.300 27.300 58 0.96 m/h 0 %
05:00:00 clear sky 26.280 26.280 26.280 61 0.37 m/h 0 %

Famous Cities (61)